Terminal Aerodrome Forecast
Issued by NWS Quad Cities IA IL

Home | Current Version | Previous Version | Text Only | Print | Product List | Glossary On
Versions: 1 2 3 4 5 6 7 8 9 10 11 12 13 14 15 16 17 18 19 20 21 22 23 24 25 26 27 28 29 30 31 32 33 34 35
000
FTUS43 KDVN 260908 AAC
TAFMLI
TAF AMD
KMLI 260908Z 2609/2706 08004KT 1SM -DZ BR OVC002
      TEMPO 2609/2612 1/4SM -DZ FG
     FM261500 VRB03KT 2SM BR OVC005
     FM261800 23007KT 5SM BR OVC012=

USA.gov is the U.S. government's official web portal to all federal, state and local government web resources and services.